| time (UTC) | temp F | wind direction | speed MPH | gust MPH | rain 1hr in | rain 24hr in | rain mn in | humidity % | barometer mb |
| 20260502212016 | 75 | 191 | 2.0 | 17.0 | 0.00 | 0.00 | 0.00 | 30 | 1008.5 |
| 20260502211516 | 74 | 194 | 8.0 | 17.0 | 0.00 | 0.00 | 0.00 | 31 | 1008.6 |
| 20260502211020 | 74 | 179 | 9.0 | 13.0 | 0.00 | 0.00 | 0.00 | 33 | 1008.5 |
| 20260502210515 | 74 | 214 | 1.0 | 13.0 | 0.00 | 0.00 | 0.00 | 31 | 1008.6 |
| 20260502210016 | 74 | 200 | 4.0 | 13.0 | 0.00 | 0.00 | 0.00 | 31 | 1008.7 |
| 20260502205522 | 74 | 189 | 4.0 | 12.0 | 0.00 | 0.00 | 0.00 | 33 | 1008.7 |
| 20260502205016 | 74 | 176 | 2.0 | 15.0 | 0.00 | 0.00 | 0.00 | 32 | 1008.8 |
| 20260502204517 | 73 | 175 | 9.0 | 16.0 | 0.00 | 0.00 | 0.00 | 34 | 1008.9 |
| 20260502204118 | 73 | 196 | 8.0 | 16.0 | 0.00 | 0.00 | 0.00 | 32 | 1008.8 |
| 20260502203515 | 74 | 200 | 3.0 | 14.0 | 0.00 | 0.00 | 0.00 | 34 | 1008.9 |
| 20260502203015 | 73 | 205 | 0.0 | 15.0 | 0.00 | 0.00 | 0.00 | 36 | 1009.0 |
| 20260502202516 | 73 | 197 | 4.0 | 15.0 | 0.00 | 0.00 | 0.00 | 36 | 1009.2 |
| 20260502202016 | 73 | 172 | 4.0 | 14.0 | 0.00 | 0.00 | 0.00 | 36 | 1009.1 |
| 20260502201517 | 72 | 174 | 3.0 | 17.0 | 0.00 | 0.00 | 0.00 | 38 | 1009.0 |
| 20260502201016 | 72 | 210 | 10.0 | 17.0 | 0.00 | 0.00 | 0.00 | 37 | 1009.2 |
| 20260502200518 | 72 | 179 | 8.0 | 18.0 | 0.00 | 0.00 | 0.00 | 40 | 1009.3 |
| 20260502200016 | 72 | 179 | 9.0 | 18.0 | 0.00 | 0.00 | 0.00 | 41 | 1009.3 |
| 20260502195515 | 72 | 192 | 4.0 | 17.0 | 0.00 | 0.00 | 0.00 | 40 | 1009.3 |
| 20260502195017 | 72 | 195 | 8.0 | 17.0 | 0.00 | 0.00 | 0.00 | 40 | 1009.4 |
| 20260502194516 | 71 | 197 | 8.0 | 16.0 | 0.00 | 0.00 | 0.00 | 41 | 1009.5 |
| 20260502194116 | 71 | 156 | 8.0 | 16.0 | 0.00 | 0.00 | 0.00 | 41 | 1009.5 |
| 20260502193516 | 71 | 201 | 8.0 | 14.0 | 0.00 | 0.00 | 0.00 | 42 | 1009.6 |
| 20260502193016 | 71 | 181 | 6.0 | 19.0 | 0.00 | 0.00 | 0.00 | 43 | 1009.7 |
| 20260502192516 | 71 | 179 | 8.0 | 20.0 | 0.00 | 0.00 | 0.00 | 44 | 1009.6 |
| 20260502192016 | 70 | 172 | 10.0 | 22.0 | 0.00 | 0.00 | 0.00 | 42 | 1009.7 |
| 20260502191517 | 70 | 181 | 11.0 | 22.0 | 0.00 | 0.00 | 0.00 | 41 | 1009.7 |
| 20260502191016 | 70 | 194 | 9.0 | 17.0 | 0.00 | 0.00 | 0.00 | 43 | 1009.6 |
| 20260502190517 | 70 | 182 | 10.0 | 17.0 | 0.00 | 0.00 | 0.00 | 43 | 1009.7 |
| 20260502190016 | 71 | 170 | 9.0 | 17.0 | 0.00 | 0.00 | 0.00 | 42 | 1009.7 |
| 20260502185515 | 71 | 187 | 6.0 | 19.0 | 0.00 | 0.00 | 0.00 | 42 | 1009.7 |
| 20260502185017 | 71 | 180 | 7.0 | 19.0 | 0.00 | 0.00 | 0.00 | 42 | 1009.7 |
| 20260502184526 | 72 | 201 | 2.0 | 20.0 | 0.00 | 0.00 | 0.00 | 40 | 1009.7 |
| 20260502184016 | 72 | 151 | 6.0 | 20.0 | 0.00 | 0.00 | 0.00 | 40 | 1009.5 |
| 20260502183516 | 72 | 189 | 4.0 | 16.0 | 0.00 | 0.00 | 0.00 | 38 | 1009.6 |
| 20260502183027 | 71 | 230 | 9.0 | 16.0 | 0.00 | 0.00 | 0.00 | 38 | 1009.7 |
| 20260502182517 | 71 | 198 | 2.0 | 17.0 | 0.00 | 0.00 | 0.00 | 38 | 1009.6 |
| 20260502182116 | 71 | 202 | 8.0 | 17.0 | 0.00 | 0.00 | 0.00 | 38 | 1009.7 |
| 20260502181519 | 72 | 177 | 4.0 | 16.0 | 0.00 | 0.00 | 0.00 | 37 | 1009.8 |
| 20260502181016 | 72 | 171 | 5.0 | 15.0 | 0.00 | 0.00 | 0.00 | 39 | 1009.8 |
| 20260502180516 | 72 | 195 | 3.0 | 15.0 | 0.00 | 0.00 | 0.00 | 38 | 1009.7 |
| 20260502170516 | 70 | 167 | 8.0 | 12.0 | 0.00 | 0.00 | 0.00 | 42 | 1009.8 |
| 20260502164016 | 69 | 199 | 6.0 | 14.0 | 0.00 | 0.00 | 0.00 | 41 | 1009.9 |
| 20260502163518 | 69 | 199 | 8.0 | 13.0 | 0.00 | 0.00 | 0.00 | 42 | 1009.9 |
| 20260502163018 | 69 | 158 | 6.0 | 11.0 | 0.00 | 0.00 | 0.00 | 41 | 1010.0 |
| 20260502162516 | 69 | 165 | 5.0 | 12.0 | 0.00 | 0.00 | 0.00 | 40 | 1010.0 |
| 20260502162016 | 69 | 153 | 7.0 | 14.0 | 0.00 | 0.00 | 0.00 | 41 | 1010.1 |
| 20260502161516 | 69 | 162 | 7.0 | 14.0 | 0.00 | 0.00 | 0.00 | 40 | 1010.1 |
| 20260502161016 | 69 | 157 | 6.0 | 13.0 | 0.00 | 0.00 | 0.00 | 39 | 1010.1 |
| 20260502160520 | 69 | 171 | 6.0 | 13.0 | 0.00 | 0.00 | 0.00 | 41 | 1010.1 |
| 20260502152018 | 66 | 179 | 5.0 | 10.0 | 0.00 | 0.00 | 0.00 | 44 | 1009.9 |
| 20260502151516 | 66 | 169 | 5.0 | 8.0 | 0.00 | 0.00 | 0.00 | 46 | 1009.9 |
| 20260502151016 | 64 | 183 | 4.0 | 9.0 | 0.00 | 0.00 | 0.00 | 47 | 1009.9 |
| 20260502150518 | 63 | 181 | 3.0 | 9.0 | 0.00 | 0.00 | 0.00 | 49 | 1009.9 |
| 20260502130516 | 51 | 168 | 0.0 | 0.0 | 0.00 | 0.00 | 0.00 | 64 | 1009.6 |
| 20260502123517 | 50 | 168 | 0.0 | 0.0 | 0.00 | 0.00 | 0.00 | 63 | 1009.5 |
| 20260502123025 | 50 | 168 | 0.0 | 0.0 | 0.00 | 0.00 | 0.00 | 63 | 1009.3 |
| 20260502122517 | 50 | 168 | 0.0 | 0.0 | 0.00 | 0.00 | 0.00 | 62 | 1009.4 |
| 20260502122018 | 50 | 168 | 0.0 | 0.0 | 0.00 | 0.00 | 0.00 | 61 | 1009.3 |
| 20260502121517 | 50 | 168 | 0.0 | 0.0 | 0.00 | 0.00 | 0.00 | 61 | 1009.3 |
| 20260502121017 | 50 | 168 | 0.0 | 0.0 | 0.00 | 0.00 | 0.00 | 60 | 1009.3 |
| 20260502120517 | 50 | 168 | 0.0 | 0.0 | 0.00 | 0.00 | 0.00 | 59 | 1009.3 |
| 20260502115518 | 50 | 168 | 0.0 | 0.0 | 0.00 | 0.00 | 0.00 | 60 | 1009.3 |
| 20260502115017 | 50 | 168 | 0.0 | 0.0 | 0.00 | 0.00 | 0.00 | 59 | 1009.4 |
| 20260502114617 | 50 | 168 | 0.0 | 0.0 | 0.00 | 0.00 | 0.00 | 59 | 1009.4 |
| 20260502114017 | 50 | 168 | 0.0 | 0.0 | 0.00 | 0.00 | 0.00 | 58 | 1009.4 |
| 20260502113517 | 50 | 168 | 0.0 | 0.0 | 0.00 | 0.00 | 0.00 | 58 | 1009.5 |
| 20260502113017 | 50 | 168 | 0.0 | 0.0 | 0.00 | 0.00 | 0.00 | 58 | 1009.6 |
| 20260502112516 | 50 | 168 | 0.0 | 0.0 | 0.00 | 0.00 | 0.00 | 58 | 1009.6 |
| 20260502112016 | 51 | 168 | 0.0 | 0.0 | 0.00 | 0.00 | 0.00 | 58 | 1009.6 |
| 20260502111520 | 51 | 168 | 0.0 | 0.0 | 0.00 | 0.00 | 0.00 | 58 | 1009.5 |
| 20260502111017 | 50 | 168 | 0.0 | 0.0 | 0.00 | 0.00 | 0.00 | 58 | 1009.6 |
| 20260502110517 | 50 | 168 | 0.0 | 0.0 | 0.00 | 0.00 | 0.00 | 60 | 1009.6 |
| 20260502110018 | 50 | 168 | 0.0 | 0.0 | 0.00 | 0.00 | 0.00 | 59 | 1009.7 |
| 20260502105517 | 50 | 168 | 0.0 | 0.0 | 0.00 | 0.00 | 0.00 | 58 | 1009.7 |
| 20260502105018 | 51 | 168 | 0.0 | 0.0 | 0.00 | 0.00 | 0.00 | 58 | 1009.7 |
| 20260502104517 | 51 | 168 | 0.0 | 0.0 | 0.00 | 0.00 | 0.00 | 57 | 1009.6 |
| 20260502104017 | 50 | 168 | 0.0 | 0.0 | 0.00 | 0.00 | 0.00 | 58 | 1009.6 |
| 20260502103516 | 50 | 168 | 0.0 | 0.0 | 0.00 | 0.00 | 0.00 | 58 | 1009.5 |
| 20260502103017 | 50 | 168 | 0.0 | 0.0 | 0.00 | 0.00 | 0.00 | 58 | 1009.6 |
| 20260502102517 | 50 | 168 | 0.0 | 0.0 | 0.00 | 0.00 | 0.00 | 57 | 1009.6 |
| 20260502102017 | 50 | 168 | 0.0 | 0.0 | 0.00 | 0.00 | 0.00 | 57 | 1009.4 |
| 20260502101531 | 50 | 168 | 0.0 | 0.0 | 0.00 | 0.00 | 0.00 | 58 | 1009.4 |
| 20260502101016 | 50 | 168 | 0.0 | 0.0 | 0.00 | 0.00 | 0.00 | 56 | 1009.4 |
| 20260502100522 | 50 | 168 | 0.0 | 0.0 | 0.00 | 0.00 | 0.00 | 56 | 1009.6 |
| 20260502091517 | 51 | 168 | 0.0 | 0.0 | 0.00 | 0.00 | 0.00 | 55 | 1010.2 |
| 20260502091018 | 51 | 168 | 0.0 | 0.0 | 0.00 | 0.00 | 0.00 | 55 | 1010.3 |
| 20260502090518 | 51 | 168 | 0.0 | 0.0 | 0.00 | 0.00 | 0.00 | 56 | 1010.4 |
| 20260502071517 | 51 | 228 | 0.0 | 0.0 | 0.00 | 0.00 | 0.00 | 58 | 1011.1 |
| 20260502071017 | 51 | 228 | 0.0 | 0.0 | 0.00 | 0.00 | 0.00 | 54 | 1011.1 |
| 20260502070519 | 51 | 228 | 0.0 | 0.0 | 0.00 | 0.00 | 0.00 | 52 | 1011.1 |
| 20260502070017 | 51 | 228 | 0.0 | 0.0 | 0.00 | 0.00 | 0.00 | 57 | 1011.1 |
| 20260502065518 | 52 | 228 | 0.0 | 0.0 | 0.00 | 0.00 | 0.00 | 52 | 1011.1 |
| 20260502065019 | 52 | 228 | 0.0 | 0.0 | 0.00 | 0.00 | 0.00 | 53 | 1011.1 |
| 20260502064516 | 52 | 228 | 0.0 | 0.0 | 0.00 | 0.00 | 0.00 | 56 | 1011.2 |
| 20260502064018 | 52 | 228 | 0.0 | 0.0 | 0.00 | 0.00 | 0.00 | 54 | 1011.2 |
| 20260502063517 | 52 | 228 | 0.0 | 0.0 | 0.00 | 0.00 | 0.00 | 54 | 1011.1 |
| 20260502063026 | 52 | 228 | 0.0 | 0.0 | 0.00 | 0.00 | 0.00 | 54 | 1011.2 |
| 20260502062517 | 52 | 228 | 0.0 | 0.0 | 0.00 | 0.00 | 0.00 | 57 | 1011.1 |
| 20260502062021 | 53 | 228 | 0.0 | 0.0 | 0.00 | 0.00 | 0.00 | 56 | 1011.1 |
| 20260502061517 | 53 | 228 | 0.0 | 0.0 | 0.00 | 0.00 | 0.00 | 59 | 1011.1 |
| 20260502061016 | 53 | 228 | 0.0 | 0.0 | 0.00 | 0.00 | 0.00 | 58 | 1011.1 |
| 20260502060521 | 53 | 228 | 0.0 | 0.0 | 0.00 | 0.00 | 0.00 | 54 | 1011.1 |
| 20260502060017 | 53 | 228 | 0.0 | 0.0 | 0.00 | 0.00 | 0.00 | 55 | 1011.1 |
| 20260502055517 | 54 | 228 | 0.0 | 0.0 | 0.00 | 0.00 | 0.00 | 53 | 1011.1 |
| 20260502055022 | 54 | 228 | 0.0 | 0.0 | 0.00 | 0.00 | 0.00 | 53 | 1011.2 |
| 20260502054517 | 54 | 228 | 0.0 | 0.0 | 0.00 | 0.00 | 0.00 | 54 | 1011.2 |
| 20260502054020 | 54 | 228 | 0.0 | 0.0 | 0.00 | 0.00 | 0.00 | 53 | 1011.1 |
| 20260502053517 | 54 | 228 | 0.0 | 0.0 | 0.00 | 0.00 | 0.00 | 53 | 1011.1 |
| 20260502053017 | 54 | 228 | 0.0 | 0.0 | 0.00 | 0.00 | 0.00 | 56 | 1011.0 |
| 20260502052517 | 54 | 228 | 0.0 | 0.0 | 0.00 | 0.00 | 0.00 | 57 | 1011.1 |
| 20260502052117 | 54 | 228 | 0.0 | 0.0 | 0.00 | 0.00 | 0.00 | 61 | 1011.0 |
| 20260502051517 | 55 | 228 | 0.0 | 0.0 | 0.00 | 0.00 | 0.00 | 57 | 1011.0 |
| 20260502051017 | 56 | 228 | 0.0 | 0.0 | 0.00 | 0.00 | 0.00 | 53 | 1010.9 |
| 20260502050521 | 56 | 228 | 0.0 | 0.0 | 0.00 | 0.00 | 0.00 | 51 | 1010.9 |
| 20260502050033 | 56 | 228 | 0.0 | 0.0 | 0.00 | 0.00 | 0.00 | 51 | 1010.8 |
| 20260502045517 | 56 | 228 | 0.0 | 0.0 | 0.00 | 0.00 | 0.00 | 54 | 1010.8 |
| 20260502045022 | 56 | 228 | 0.0 | 0.0 | 0.00 | 0.00 | 0.00 | 53 | 1010.8 |
| 20260502044517 | 56 | 228 | 0.0 | 0.0 | 0.00 | 0.00 | 0.00 | 52 | 1010.7 |
| 20260502044022 | 56 | 228 | 0.0 | 0.0 | 0.00 | 0.00 | 0.00 | 52 | 1010.7 |
| 20260502043517 | 57 | 228 | 0.0 | 0.0 | 0.00 | 0.00 | 0.00 | 53 | 1010.7 |
| 20260502043017 | 57 | 228 | 0.0 | 0.0 | 0.00 | 0.00 | 0.00 | 53 | 1010.6 |
| 20260502042518 | 58 | 228 | 0.0 | 0.0 | 0.00 | 0.00 | 0.00 | 55 | 1010.6 |
| 20260502042021 | 58 | 228 | 0.0 | 0.0 | 0.00 | 0.00 | 0.00 | 54 | 1010.5 |
| 20260502041518 | 58 | 228 | 0.0 | 0.0 | 0.00 | 0.00 | 0.00 | 54 | 1010.4 |
| 20260502041017 | 59 | 228 | 0.0 | 0.0 | 0.00 | 0.00 | 0.00 | 53 | 1010.4 |
| 20260502040517 | 59 | 228 | 0.0 | 0.0 | 0.00 | 0.00 | 0.00 | 52 | 1010.3 |
| 20260502040017 | 59 | 228 | 0.0 | 0.0 | 0.00 | 0.00 | 0.00 | 50 | 1010.2 |
| 20260502035517 | 60 | 228 | 0.0 | 0.0 | 0.00 | 0.00 | 0.00 | 50 | 1010.2 |
| 20260502035017 | 60 | 228 | 0.0 | 0.0 | 0.00 | 0.00 | 0.00 | 51 | 1010.0 |
| 20260502034518 | 60 | 229 | 0.0 | 0.0 | 0.00 | 0.00 | 0.00 | 53 | 1010.0 |
| 20260502034019 | 61 | 232 | 0.0 | 0.0 | 0.00 | 0.00 | 0.00 | 52 | 1009.8 |
| 20260502033517 | 61 | 240 | 0.0 | 0.0 | 0.00 | 0.00 | 0.00 | 50 | 1009.9 |
| 20260502033020 | 62 | 240 | 0.0 | 0.0 | 0.00 | 0.00 | 0.00 | 51 | 1009.8 |
| 20260502032520 | 62 | 241 | 0.0 | 0.0 | 0.00 | 0.00 | 0.00 | 50 | 1009.8 |
| 20260502032018 | 62 | 248 | 0.0 | 0.0 | 0.00 | 0.00 | 0.00 | 49 | 1009.7 |
| 20260502031518 | 63 | 325 | 0.0 | 0.0 | 0.00 | 0.00 | 0.00 | 46 | 1009.6 |
| 20260502031018 | 64 | 326 | 0.0 | 0.0 | 0.00 | 0.00 | 0.00 | 45 | 1009.6 |
| 20260502030619 | 65 | 326 | 0.0 | 0.0 | 0.00 | 0.00 | 0.00 | 46 | 1009.5 |
| 20260502030018 | 66 | 326 | 0.0 | 0.0 | 0.00 | 0.00 | 0.00 | 42 | 1009.5 |
| 20260502025517 | 66 | 326 | 0.0 | 0.0 | 0.00 | 0.00 | 0.00 | 41 | 1009.4 |
| 20260502025018 | 67 | 326 | 0.0 | 0.0 | 0.00 | 0.00 | 0.00 | 40 | 1009.4 |
| 20260502024517 | 68 | 326 | 0.0 | 0.0 | 0.00 | 0.00 | 0.00 | 38 | 1009.4 |
| 20260502024017 | 68 | 326 | 0.0 | 0.0 | 0.00 | 0.00 | 0.00 | 38 | 1009.4 |
| 20260502023520 | 68 | 326 | 0.0 | 4.0 | 0.00 | 0.00 | 0.00 | 38 | 1009.3 |
| 20260502023019 | 69 | 326 | 1.0 | 4.0 | 0.00 | 0.00 | 0.00 | 37 | 1009.3 |
| 20260502022517 | 69 | 325 | 0.0 | 4.0 | 0.00 | 0.00 | 0.00 | 36 | 1009.3 |
| 20260502022022 | 70 | 324 | 0.0 | 4.0 | 0.00 | 0.00 | 0.00 | 34 | 1009.2 |
| 20260502021617 | 70 | 291 | 0.0 | 9.0 | 0.00 | 0.00 | 0.00 | 34 | 1009.2 |
| 20260502021021 | 70 | 319 | 1.0 | 9.0 | 0.00 | 0.00 | 0.00 | 33 | 1009.2 |
| 20260502020520 | 71 | 328 | 3.0 | 8.0 | 0.00 | 0.00 | 0.00 | 33 | 1009.3 |
| 20260502020018 | 71 | 336 | 1.0 | 8.0 | 0.00 | 0.00 | 0.00 | 33 | 1009.3 |
| 20260502015517 | 72 | 298 | 0.0 | 9.0 | 0.00 | 0.00 | 0.00 | 32 | 1009.1 |
| 20260502015022 | 72 | 303 | 2.0 | 9.0 | 0.00 | 0.00 | 0.00 | 31 | 1009.2 |
| 20260502014525 | 72 | 317 | 1.0 | 9.0 | 0.00 | 0.00 | 0.00 | 30 | 1009.1 |
| 20260502014018 | 73 | 293 | 2.0 | 9.0 | 0.00 | 0.00 | 0.00 | 30 | 1009.1 |
| 20260502013518 | 73 | 295 | 0.0 | 8.0 | 0.00 | 0.00 | 0.00 | 30 | 1009.1 |
| 20260502013017 | 73 | 334 | 4.0 | 8.0 | 0.00 | 0.00 | 0.00 | 30 | 1009.0 |
| 20260502012521 | 73 | 287 | 0.0 | 10.0 | 0.00 | 0.00 | 0.00 | 31 | 1009.0 |
| 20260502012018 | 73 | 332 | 4.0 | 10.0 | 0.00 | 0.00 | 0.00 | 30 | 1009.0 |
| 20260502011517 | 74 | 307 | 2.0 | 9.0 | 0.00 | 0.00 | 0.00 | 30 | 1009.0 |
| 20260502011017 | 74 | 295 | 2.0 | 9.0 | 0.00 | 0.00 | 0.00 | 30 | 1009.0 |
| 20260502010517 | 74 | 314 | 2.0 | 8.0 | 0.00 | 0.00 | 0.00 | 30 | 1009.1 |
| 20260502010023 | 75 | 328 | 2.0 | 9.0 | 0.00 | 0.00 | 0.00 | 30 | 1009.0 |
| 20260502005518 | 75 | 295 | 2.0 | 9.0 | 0.00 | 0.00 | 0.00 | 31 | 1009.0 |
| 20260502005020 | 75 | 296 | 2.0 | 9.0 | 0.00 | 0.00 | 0.00 | 30 | 1009.0 |
| 20260502004518 | 75 | 312 | 2.0 | 9.0 | 0.00 | 0.00 | 0.00 | 30 | 1009.0 |
| 20260502004021 | 76 | 304 | 2.0 | 9.0 | 0.00 | 0.00 | 0.00 | 30 | 1009.0 |
| 20260502003517 | 76 | 295 | 1.0 | 9.0 | 0.00 | 0.00 | 0.00 | 31 | 1009.0 |
| 20260502003017 | 76 | 314 | 5.0 | 9.0 | 0.00 | 0.00 | 0.00 | 30 | 1009.0 |
| 20260502002523 | 77 | 338 | 4.0 | 10.0 | 0.00 | 0.00 | 0.00 | 30 | 1009.0 |
| 20260502002021 | 77 | 342 | 2.0 | 10.0 | 0.00 | 0.00 | 0.00 | 29 | 1009.0 |
| 20260502001518 | 78 | 291 | 2.0 | 10.0 | 0.00 | 0.00 | 0.00 | 28 | 1008.9 |
| 20260502001018 | 78 | 258 | 2.0 | 10.0 | 0.00 | 0.00 | 0.00 | 28 | 1008.9 |
| 20260502000517 | 78 | 296 | 3.0 | 10.0 | 0.00 | 0.00 | 0.00 | 27 | 1008.9 |
| 20260502000018 | 78 | 328 | 2.0 | 9.0 | 0.00 | 0.00 | 0.00 | 26 | 1008.9 |
| 20260501235519 | 78 | 273 | 2.0 | 7.0 | 0.00 | 0.00 | 0.00 | 26 | 1009.0 |
| 20260501235018 | 78 | 282 | 0.0 | 8.0 | 0.00 | 0.00 | 0.00 | 26 | 1009.0 |
| 20260501234517 | 78 | 287 | 2.0 | 9.0 | 0.00 | 0.00 | 0.00 | 26 | 1009.1 |
| 20260501234017 | 78 | 291 | 3.0 | 9.0 | 0.00 | 0.00 | 0.00 | 26 | 1009.1 |
| 20260501233518 | 79 | 349 | 2.0 | 10.0 | 0.00 | 0.00 | 0.00 | 25 | 1009.1 |
| 20260501233018 | 79 | 301 | 3.0 | 10.0 | 0.00 | 0.00 | 0.00 | 25 | 1009.1 |
| 20260501232517 | 79 | 284 | 1.0 | 10.0 | 0.00 | 0.00 | 0.00 | 25 | 1009.2 |
| 20260501232018 | 79 | 268 | 2.0 | 10.0 | 0.00 | 0.00 | 0.00 | 24 | 1009.3 |
| 20260501231517 | 79 | 310 | 2.0 | 9.0 | 0.00 | 0.00 | 0.00 | 24 | 1009.3 |
| 20260501231017 | 79 | 299 | 1.0 | 7.0 | 0.00 | 0.00 | 0.00 | 23 | 1009.3 |
| 20260501230520 | 79 | 288 | 2.0 | 11.0 | 0.00 | 0.00 | 0.00 | 22 | 1009.4 |
| 20260501230017 | 79 | 312 | 2.0 | 12.0 | 0.00 | 0.00 | 0.00 | 23 | 1009.4 |
| 20260501225518 | 79 | 297 | 3.0 | 12.0 | 0.00 | 0.00 | 0.00 | 22 | 1009.4 |
| 20260501225021 | 80 | 299 | 0.0 | 6.0 | 0.00 | 0.00 | 0.00 | 22 | 1009.6 |
| 20260501224517 | 80 | 283 | 1.0 | 7.0 | 0.00 | 0.00 | 0.00 | 22 | 1009.6 |
| 20260501224019 | 80 | 270 | 1.0 | 9.0 | 0.00 | 0.00 | 0.00 | 24 | 1009.7 |
| 20260501223520 | 80 | 293 | 2.0 | 9.0 | 0.00 | 0.00 | 0.00 | 23 | 1009.8 |
| 20260501223017 | 80 | 285 | 0.0 | 8.0 | 0.00 | 0.00 | 0.00 | 22 | 1009.9 |
| 20260501222517 | 80 | 275 | 1.0 | 10.0 | 0.00 | 0.00 | 0.00 | 22 | 1009.9 |
| 20260501222018 | 79 | 270 | 1.0 | 10.0 | 0.00 | 0.00 | 0.00 | 22 | 1010.0 |
| 20260501221523 | 79 | 323 | 1.0 | 9.0 | 0.00 | 0.00 | 0.00 | 22 | 1010.1 |
| 20260501221018 | 80 | 288 | 0.0 | 9.0 | 0.00 | 0.00 | 0.00 | 22 | 1010.2 |
| 20260501220517 | 80 | 305 | 3.0 | 9.0 | 0.00 | 0.00 | 0.00 | 22 | 1010.3 |
| 20260501220017 | 80 | 285 | 0.0 | 6.0 | 0.00 | 0.00 | 0.00 | 22 | 1010.4 |
| 20260501215519 | 80 | 279 | 1.0 | 8.0 | 0.00 | 0.00 | 0.00 | 23 | 1010.4 |
| 20260501215021 | 79 | 292 | 2.0 | 10.0 | 0.00 | 0.00 | 0.00 | 21 | 1010.4 |
| 20260501214518 | 80 | 290 | 1.0 | 7.0 | 0.00 | 0.00 | 0.00 | 23 | 1010.5 |
| 20260501214018 | 79 | 287 | 1.0 | 12.0 | 0.00 | 0.00 | 0.00 | 23 | 1010.5 |
| 20260501213517 | 79 | 318 | 3.0 | 9.0 | 0.00 | 0.00 | 0.00 | 23 | 1010.6 |
| 20260501213017 | 79 | 298 | 2.0 | 9.0 | 0.00 | 0.00 | 0.00 | 22 | 1010.6 |
| 20260501212517 | 80 | 289 | 0.0 | 10.0 | 0.00 | 0.00 | 0.00 | 23 | 1010.7 |